createdAt,value
2022-10-23T00:01:45.005Z,99156.02
2022-10-23T00:04:16.113Z,99158.53
2022-10-23T00:06:45.092Z,99160.15
2022-10-23T00:09:16.903Z,99165.84
2022-10-23T00:11:48.243Z,99167.44
2022-10-23T00:14:21.787Z,99167.02
2022-10-23T00:16:50.338Z,99174.64
2022-10-23T00:19:18.420Z,99175.08
2022-10-23T00:21:46.483Z,99172.63
2022-10-23T00:24:14.887Z,99178.16
2022-10-23T00:26:43.127Z,99176.05
2022-10-23T00:29:11.770Z,99175.17
2022-10-23T00:31:39.938Z,99177.21
2022-10-23T00:34:08.831Z,99172.52
2022-10-23T00:36:37.971Z,99171.81
2022-10-23T00:39:07.211Z,99172.46
2022-10-23T00:41:35.686Z,99178.27
2022-10-23T00:44:06.454Z,99178.10
2022-10-23T00:46:36.009Z,99178.07
2022-10-23T00:49:05.635Z,99178.38
2022-10-23T00:51:40.829Z,99180.78
2022-10-23T00:54:23.343Z,99179.44
2022-10-23T00:56:56.772Z,99183.88
2022-10-23T00:59:25.621Z,99183.94
2022-10-23T01:01:54.871Z,99187.13
2022-10-23T01:04:24.149Z,99187.97
2022-10-23T01:07:00.845Z,99188.79
2022-10-23T01:09:34.970Z,99194.47
2022-10-23T01:12:24.067Z,99194.73
2022-10-23T01:14:52.120Z,99194.92
2022-10-23T01:17:47.278Z,99195.02
2022-10-23T01:20:36.464Z,99197.55
2022-10-23T01:23:29.071Z,99201.74
2022-10-23T01:26:31.682Z,99196.88
2022-10-23T01:29:08.648Z,99202.10
2022-10-23T01:31:42.846Z,99204.31
2022-10-23T01:34:28.091Z,99203.27
2022-10-23T01:36:58.375Z,99203.06
2022-10-23T01:39:36.008Z,99203.31
2022-10-23T01:42:10.981Z,99201.77
2022-10-23T01:44:51.764Z,99197.23
2022-10-23T01:50:06.376Z,99196.15
2022-10-23T01:52:35.186Z,99198.41
2022-10-23T01:55:09.739Z,99200.13
2022-10-23T01:57:40.587Z,99202.98
2022-10-23T02:00:13.379Z,99203.38
2022-10-23T02:03:26.811Z,99204.84
2022-10-23T02:05:55.163Z,99205.47
2022-10-23T02:08:25.319Z,99206.14
2022-10-23T02:11:05.018Z,99204.00
2022-10-23T02:13:44.676Z,99201.55
2022-10-23T02:16:38.757Z,99202.16
2022-10-23T02:19:24.009Z,99208.96
2022-10-23T02:22:09.042Z,99209.17
2022-10-23T02:24:49.211Z,99207.14
2022-10-23T02:27:35.475Z,99215.02
2022-10-23T02:30:09.395Z,99213.81
2022-10-23T02:32:44.842Z,99213.60
2022-10-23T02:35:14.293Z,99216.11
2022-10-23T02:37:43.058Z,99221.02
2022-10-23T02:40:11.789Z,99222.19
2022-10-23T02:42:55.142Z,99226.91
2022-10-23T02:45:36.025Z,99225.67
2022-10-23T02:48:12.630Z,99225.58
2022-10-23T02:50:51.722Z,99226.52
2022-10-23T02:53:31.883Z,99222.28
2022-10-23T02:56:28.121Z,99218.39
2022-10-23T02:59:08.076Z,99222.48
2022-10-23T03:01:49.158Z,99225.64
2022-10-23T03:04:19.979Z,99230.76
2022-10-23T03:06:50.909Z,99235.27
2022-10-23T03:09:19.269Z,99233.77
2022-10-23T03:11:47.334Z,99237.16
2022-10-23T03:14:15.423Z,99235.74
2022-10-23T03:16:43.574Z,99235.89
2022-10-23T03:21:45.784Z,99241.98
2022-10-23T03:24:13.890Z,99244.15
2022-10-23T03:26:43.999Z,99243.98
2022-10-23T03:29:12.241Z,99244.90
2022-10-23T03:31:45.904Z,99246.85
2022-10-23T03:34:15.146Z,99247.23
2022-10-23T03:36:43.604Z,99247.98
2022-10-23T03:39:11.868Z,99252.09
2022-10-23T03:41:40.117Z,99253.52
2022-10-23T03:44:08.829Z,99258.92
2022-10-23T03:46:37.244Z,99257.80
2022-10-23T03:49:05.822Z,99256.09
2022-10-23T03:51:33.845Z,99261.23
2022-10-23T03:54:02.073Z,99263.16
2022-10-23T03:56:30.245Z,99268.07
2022-10-23T03:58:58.200Z,99275.38
2022-10-23T04:01:27.006Z,99273.91
2022-10-23T04:03:56.257Z,99273.13
2022-10-23T04:06:25.291Z,99274.16
2022-10-23T04:08:57.386Z,99276.11
2022-10-23T04:11:25.443Z,99277.90
2022-10-23T04:13:53.767Z,99277.66
2022-10-23T04:16:22.197Z,99280.73
2022-10-23T04:18:50.241Z,99277.40
2022-10-23T04:21:18.346Z,99277.97
2022-10-23T04:23:47.043Z,99280.38
2022-10-23T04:26:19.325Z,99277.38
2022-10-23T04:28:47.680Z,99271.05
2022-10-23T04:31:16.835Z,99272.07
2022-10-23T04:33:44.971Z,99269.69
2022-10-23T04:36:27.057Z,99272.96
2022-10-23T04:38:55.097Z,99271.75
2022-10-23T04:41:23.133Z,99275.09
2022-10-23T04:43:51.388Z,99271.92
2022-10-23T04:46:19.451Z,99269.39
2022-10-23T04:48:49.179Z,99273.75
2022-10-23T04:51:38.203Z,99270.06
2022-10-23T04:54:17.392Z,99271.23
2022-10-23T04:56:45.662Z,99277.34
2022-10-23T04:59:17.612Z,99270.61
2022-10-23T05:01:46.622Z,99274.42
2022-10-23T05:04:15.321Z,99276.25
2022-10-23T05:07:18.979Z,99271.77
2022-10-23T05:10:10.213Z,99268.28
2022-10-23T05:12:43.775Z,99269.77
2022-10-23T05:15:11.943Z,99266.65
2022-10-23T05:17:44.131Z,99266.59
2022-10-23T05:20:18.512Z,99272.90
2022-10-23T05:22:51.241Z,99275.27
2022-10-23T05:25:22.238Z,99278.80
2022-10-23T05:27:54.205Z,99279.94
2022-10-23T05:30:23.035Z,99281.98
2022-10-23T05:32:51.265Z,99277.50
2022-10-23T05:35:23.209Z,99282.69
2022-10-23T05:37:54.997Z,99280.63
2022-10-23T05:40:25.958Z,99288.58
2022-10-23T05:43:00.114Z,99289.52
2022-10-23T05:45:46.657Z,99294.86
2022-10-23T05:48:35.588Z,99293.60
2022-10-23T05:51:28.847Z,99297.39
2022-10-23T05:54:17.354Z,99300.15
2022-10-23T05:57:14.755Z,99299.91
2022-10-23T05:59:45.990Z,99299.61
2022-10-23T06:02:20.372Z,99302.52
2022-10-23T06:04:53.489Z,99304.17
2022-10-23T06:07:44.809Z,99305.12
2022-10-23T06:10:13.493Z,99306.91
2022-10-23T06:12:44.610Z,99313.71
2022-10-23T06:15:15.881Z,99318.13
2022-10-23T06:18:05.021Z,99320.08
2022-10-23T06:20:37.474Z,99322.94
2022-10-23T06:23:21.338Z,99324.94
2022-10-23T06:26:20.007Z,99328.73
2022-10-23T06:28:53.640Z,99328.45
2022-10-23T06:31:26.831Z,99327.75
2022-10-23T06:33:56.766Z,99329.10
2022-10-23T06:36:27.833Z,99332.13
2022-10-23T06:39:01.279Z,99335.17
2022-10-23T06:41:49.369Z,99333.95
2022-10-23T06:44:37.301Z,99338.86
2022-10-23T06:47:14.519Z,99338.95
2022-10-23T06:50:05.655Z,99344.70
2022-10-23T06:52:46.641Z,99348.70
2022-10-23T06:55:16.898Z,99344.79
2022-10-23T06:57:45.935Z,99347.55
2022-10-23T07:00:14.904Z,99344.52
2022-10-23T07:02:51.541Z,99342.50
2022-10-23T07:05:20.671Z,99343.91
2022-10-23T07:07:48.932Z,99340.17
2022-10-23T07:10:22.619Z,99336.48
2022-10-23T07:13:01.072Z,99334.63
2022-10-23T07:15:32.722Z,99329.80
2022-10-23T07:18:01.324Z,99332.89
2022-10-23T07:20:39.444Z,99334.78
2022-10-23T07:23:09.218Z,99330.84
2022-10-23T07:25:39.681Z,99323.00
2022-10-23T07:28:09.250Z,99320.86
2022-10-23T07:30:37.535Z,99332.08
2022-10-23T07:33:06.372Z,99335.04
2022-10-23T07:35:47.581Z,99333.44
2022-10-23T07:38:20.773Z,99334.00
2022-10-23T07:40:54.063Z,99333.48
2022-10-23T07:43:22.813Z,99332.83
2022-10-23T07:45:53.555Z,99334.47
2022-10-23T07:48:28.533Z,99333.13
2022-10-23T07:51:01.657Z,99330.27
2022-10-23T07:53:30.941Z,99328.06
2022-10-23T07:56:10.027Z,99329.13
2022-10-23T07:58:58.578Z,99328.01
2022-10-23T08:01:36.856Z,99326.56
2022-10-23T08:04:06.150Z,99333.15
2022-10-23T08:06:38.439Z,99324.27
2022-10-23T08:09:07.222Z,99324.84
2022-10-23T08:11:36.483Z,99324.21
2022-10-23T08:14:06.827Z,99330.50
2022-10-23T08:16:37.486Z,99329.66
2022-10-23T08:19:07.873Z,99329.23
2022-10-23T08:21:37.484Z,99324.37
2022-10-23T08:24:06.050Z,99324.23
2022-10-23T08:26:34.035Z,99317.68
2022-10-23T08:29:02.158Z,99319.21
2022-10-23T08:31:30.921Z,99320.63
2022-10-23T08:34:15.708Z,99327.92
2022-10-23T08:36:46.564Z,99330.35
2022-10-23T08:39:15.317Z,99326.92
2022-10-23T08:41:54.681Z,99335.46
2022-10-23T08:44:48.835Z,99336.98
2022-10-23T08:47:39.333Z,99340.88
2022-10-23T08:50:42.795Z,99332.73
2022-10-23T08:53:33.030Z,99329.94
2022-10-23T08:56:14.457Z,99335.28
2022-10-23T08:58:56.041Z,99340.59
2022-10-23T09:01:43.105Z,99345.95
2022-10-23T09:04:14.158Z,99352.60
2022-10-23T09:06:54.553Z,99352.52
2022-10-23T09:09:42.364Z,99350.46
2022-10-23T09:12:13.990Z,99343.58
2022-10-23T09:15:10.152Z,99341.70
2022-10-23T09:17:41.504Z,99338.23
2022-10-23T09:20:18.907Z,99340.85
2022-10-23T09:22:49.869Z,99342.71
2022-10-23T09:25:25.614Z,99340.98
2022-10-23T09:27:58.160Z,99344.61
2022-10-23T09:30:33.405Z,99352.70
2022-10-23T09:33:13.721Z,99356.45
2022-10-23T09:35:59.902Z,99359.09
2022-10-23T09:38:34.009Z,99362.29
2022-10-23T09:41:09.864Z,99367.86
2022-10-23T09:43:38.499Z,99363.95
2022-10-23T09:46:09.329Z,99361.39
2022-10-23T09:48:39.331Z,99362.05
2022-10-23T09:51:13.490Z,99361.98
2022-10-23T09:53:49.475Z,99366.23
2022-10-23T09:56:24.712Z,99363.55
2022-10-23T09:58:57.416Z,99360.15
2022-10-23T10:01:28.263Z,99361.20
2022-10-23T10:04:04.646Z,99359.63
2022-10-23T10:06:34.096Z,99360.04
2022-10-23T10:09:18.236Z,99360.81
2022-10-23T10:11:54.394Z,99364.19
2022-10-23T10:14:50.339Z,99362.52
2022-10-23T10:17:32.163Z,99363.74
2022-10-23T10:20:37.624Z,99364.41
2022-10-23T10:23:20.060Z,99364.14
2022-10-23T10:26:05.997Z,99357.85
2022-10-23T10:29:14.074Z,99362.73
2022-10-23T10:32:14.665Z,99360.48
2022-10-23T10:34:51.602Z,99365.41
2022-10-23T10:37:42.225Z,99363.45
2022-10-23T10:40:33.133Z,99361.27
2022-10-23T10:43:38.802Z,99363.73
2022-10-23T10:46:31.998Z,99360.52
2022-10-23T10:49:07.601Z,99355.64
2022-10-23T10:51:47.444Z,99355.80
2022-10-23T10:54:55.257Z,99352.86
2022-10-23T10:57:34.578Z,99350.40
2022-10-23T11:00:25.850Z,99345.34
2022-10-23T11:03:02.680Z,99345.12
2022-10-23T11:05:37.664Z,99342.19
2022-10-23T11:08:13.204Z,99343.55
2022-10-23T11:10:45.503Z,99336.73
2022-10-23T11:13:29.101Z,99336.30
2022-10-23T11:16:01.896Z,99330.98
2022-10-23T11:18:31.778Z,99327.04
2022-10-23T11:21:23.023Z,99325.26
2022-10-23T11:24:18.131Z,99324.86
2022-10-23T11:27:04.730Z,99319.99
2022-10-23T11:30:17.874Z,99309.34
2022-10-23T11:33:23.613Z,99305.36
2022-10-23T11:36:15.086Z,99303.41
2022-10-23T11:38:46.897Z,99305.55
2022-10-23T11:41:25.722Z,99301.71
2022-10-23T11:44:03.759Z,99299.78
2022-10-23T11:46:38.244Z,99293.11
2022-10-23T11:49:21.246Z,99292.75
2022-10-23T11:52:00.277Z,99291.58
2022-10-23T11:54:28.750Z,99286.58
2022-10-23T11:57:11.612Z,99281.16
2022-10-23T11:59:53.678Z,99280.30
2022-10-23T12:02:27.718Z,99284.08
2022-10-23T12:04:56.089Z,99279.27
2022-10-23T12:07:26.749Z,99277.71
2022-10-23T12:10:22.871Z,99277.20
2022-10-23T12:13:06.664Z,99269.99
2022-10-23T12:15:35.064Z,99264.41
2022-10-23T12:18:29.251Z,99266.52
2022-10-23T12:20:58.663Z,99257.56
2022-10-23T12:23:35.812Z,99254.38
2022-10-23T12:26:12.537Z,99253.91
2022-10-23T12:29:05.592Z,99256.32
2022-10-23T12:31:55.186Z,99256.79
2022-10-23T12:34:32.236Z,99253.32
2022-10-23T12:37:38.398Z,99249.58
2022-10-23T12:40:09.691Z,99248.14
2022-10-23T12:42:38.099Z,99241.80
2022-10-23T12:45:18.605Z,99235.32
2022-10-23T12:47:48.087Z,99230.44
2022-10-23T12:50:20.928Z,99228.75
2022-10-23T12:53:09.819Z,99227.81
2022-10-23T12:55:53.545Z,99223.90
2022-10-23T12:58:26.348Z,99227.64
2022-10-23T13:00:59.068Z,99232.92
2022-10-23T13:03:29.876Z,99233.99
2022-10-23T13:05:59.124Z,99231.42
2022-10-23T13:08:37.307Z,99228.82
2022-10-23T13:11:26.176Z,99234.99
2022-10-23T13:13:55.718Z,99236.57
2022-10-23T13:16:25.812Z,99238.50
2022-10-23T13:18:54.484Z,99232.75
2022-10-23T13:21:30.403Z,99233.52
2022-10-23T13:23:58.831Z,99232.33
2022-10-23T13:26:45.502Z,99233.86
2022-10-23T13:31:58.501Z,99227.03
2022-10-23T13:34:29.292Z,99223.58
2022-10-23T13:37:28.531Z,99224.24
2022-10-23T13:40:10.164Z,99225.40
2022-10-23T13:42:38.374Z,99222.41
2022-10-23T13:45:16.892Z,99224.16
2022-10-23T13:47:45.326Z,99224.70
2022-10-23T13:50:13.645Z,99223.79
2022-10-23T13:52:41.692Z,99224.52
2022-10-23T13:55:23.009Z,99222.55
2022-10-23T13:57:51.447Z,99218.29
2022-10-23T14:00:19.514Z,99216.01
2022-10-23T14:02:47.689Z,99214.27
2022-10-23T14:05:15.705Z,99208.80
2022-10-23T14:07:43.988Z,99203.95
2022-10-23T14:10:12.239Z,99202.70
2022-10-23T14:12:42.508Z,99200.04
2022-10-23T14:15:11.958Z,99201.23
2022-10-23T14:17:40.160Z,99194.92
2022-10-23T14:20:08.927Z,99193.73
2022-10-23T14:22:37.067Z,99193.31
2022-10-23T14:25:05.995Z,99192.95
2022-10-23T14:27:34.265Z,99196.74
2022-10-23T14:30:02.347Z,99193.30
2022-10-23T14:32:30.766Z,99189.96
2022-10-23T14:34:58.885Z,99191.86
2022-10-23T14:37:26.932Z,99191.73
2022-10-23T14:39:54.909Z,99189.62
2022-10-23T14:42:23.315Z,99192.48
2022-10-23T14:44:51.582Z,99193.29
2022-10-23T14:47:19.895Z,99192.20
2022-10-23T14:49:52.580Z,99189.60
2022-10-23T14:52:20.819Z,99188.57
2022-10-23T14:54:51.272Z,99190.40
2022-10-23T14:57:21.781Z,99184.61
2022-10-23T14:59:50.196Z,99184.39
2022-10-23T15:02:18.221Z,99179.90
2022-10-23T15:04:46.350Z,99178.04
2022-10-23T15:07:14.528Z,99180.92
2022-10-23T15:09:42.643Z,99173.63
2022-10-23T15:12:10.794Z,99177.73
2022-10-23T15:14:38.916Z,99180.50
2022-10-23T15:17:07.724Z,99180.02
2022-10-23T15:19:37.212Z,99184.54
2022-10-23T15:22:05.400Z,99182.58
2022-10-23T15:24:33.427Z,99185.00
2022-10-23T15:27:02.129Z,99187.27
2022-10-23T15:29:30.726Z,99188.45
2022-10-23T15:31:59.350Z,99194.75
2022-10-23T15:34:29.455Z,99189.27
2022-10-23T15:36:58.436Z,99191.09
2022-10-23T15:39:33.725Z,99192.55
2022-10-23T15:42:06.441Z,99193.55
2022-10-23T15:44:34.774Z,99187.88
2022-10-23T15:47:03.722Z,99189.88
2022-10-23T15:49:32.732Z,99190.82
2022-10-23T15:52:02.373Z,99190.86
2022-10-23T15:54:32.886Z,99192.93
2022-10-23T15:57:02.505Z,99189.01
2022-10-23T15:59:32.329Z,99191.58
2022-10-23T16:02:00.773Z,99191.53
2022-10-23T16:04:29.127Z,99194.55
2022-10-23T16:06:57.205Z,99193.20
2022-10-23T16:09:25.369Z,99198.27
2022-10-23T16:11:53.418Z,99198.48
2022-10-23T16:14:21.675Z,99197.39
2022-10-23T16:16:49.839Z,99198.04
2022-10-23T16:19:18.727Z,99202.48
2022-10-23T16:21:46.721Z,99200.97
2022-10-23T16:24:14.742Z,99207.95
2022-10-23T16:26:42.832Z,99206.10
2022-10-23T16:29:11.646Z,99198.60
2022-10-23T16:31:39.743Z,99199.04
2022-10-23T16:34:07.873Z,99199.19
2022-10-23T16:36:39.138Z,99203.09
2022-10-23T16:39:20.349Z,99202.20
2022-10-23T16:42:07.190Z,99202.55
2022-10-23T16:44:58.407Z,99202.52
2022-10-23T16:47:26.871Z,99200.23
2022-10-23T16:49:54.849Z,99198.93
2022-10-23T16:52:23.656Z,99197.97
2022-10-23T16:54:51.818Z,99201.27
2022-10-23T16:57:19.986Z,99204.74
2022-10-23T16:59:48.144Z,99203.57
2022-10-23T17:02:16.386Z,99207.20
2022-10-23T17:04:44.608Z,99206.82
2022-10-23T17:07:13.389Z,99210.23
2022-10-23T17:09:44.799Z,99209.40
2022-10-23T17:12:14.258Z,99210.03
2022-10-23T17:14:42.740Z,99210.15
2022-10-23T17:17:11.049Z,99209.58
2022-10-23T17:19:46.040Z,99207.52
2022-10-23T17:22:15.349Z,99204.00
2022-10-23T17:24:46.187Z,99204.64
2022-10-23T17:27:17.259Z,99204.98
2022-10-23T17:29:45.382Z,99204.26
2022-10-23T17:32:13.402Z,99208.11
2022-10-23T17:34:41.690Z,99210.96
2022-10-23T17:37:10.297Z,99212.87
2022-10-23T17:39:38.264Z,99212.13
2022-10-23T17:42:06.359Z,99217.48
2022-10-23T17:44:34.324Z,99214.30
2022-10-23T17:47:02.422Z,99209.41
2022-10-23T17:49:30.706Z,99207.67
2022-10-23T17:51:58.671Z,99206.95
2022-10-23T17:54:27.673Z,99203.69
2022-10-23T17:56:56.635Z,99202.25
2022-10-23T17:59:24.630Z,99204.17
2022-10-23T18:01:53.557Z,99202.41
2022-10-23T18:04:22.108Z,99204.31
2022-10-23T18:06:52.862Z,99211.16
2022-10-23T18:09:23.544Z,99203.65
2022-10-23T18:11:52.875Z,99204.38
2022-10-23T18:14:23.080Z,99201.95
2022-10-23T18:16:53.807Z,99205.67
2022-10-23T18:19:22.687Z,99201.57
2022-10-23T18:21:51.281Z,99200.24
2022-10-23T18:24:19.544Z,99199.29
2022-10-23T18:26:48.357Z,99198.70
2022-10-23T18:29:17.605Z,99197.55
2022-10-23T18:31:48.462Z,99201.51
2022-10-23T18:34:20.451Z,99203.62
2022-10-23T18:36:52.406Z,99203.91
2022-10-23T18:39:24.094Z,99196.91
2022-10-23T18:41:53.387Z,99192.64
2022-10-23T18:44:23.512Z,99198.13
2022-10-23T18:46:52.302Z,99203.19
2022-10-23T18:49:21.054Z,99202.88
2022-10-23T18:51:50.112Z,99200.94
2022-10-23T18:54:21.458Z,99200.14
2022-10-23T18:56:50.566Z,99201.36
2022-10-23T18:59:20.669Z,99201.00
2022-10-23T19:01:50.350Z,99196.58
2022-10-23T19:04:19.705Z,99194.11
2022-10-23T19:06:49.925Z,99192.34
2022-10-23T19:09:19.052Z,99187.66
2022-10-23T19:11:48.365Z,99185.23
2022-10-23T19:14:17.176Z,99182.63
2022-10-23T19:16:57.981Z,99184.45
2022-10-23T19:19:30.892Z,99174.60
2022-10-23T19:22:02.049Z,99175.54
2022-10-23T19:25:03.001Z,99174.73
2022-10-23T19:27:31.610Z,99174.00
2022-10-23T19:30:03.487Z,99174.66
2022-10-23T19:32:32.104Z,99174.21
2022-10-23T19:35:01.454Z,99171.73
2022-10-23T19:37:29.650Z,99172.77
2022-10-23T19:39:58.262Z,99173.15
2022-10-23T19:42:28.020Z,99171.95
2022-10-23T19:44:56.914Z,99166.08
2022-10-23T19:47:26.208Z,99161.48
2022-10-23T19:49:55.719Z,99158.69
2022-10-23T19:52:24.223Z,99160.49
2022-10-23T19:54:52.336Z,99161.42
2022-10-23T19:57:22.597Z,99160.33
2022-10-23T19:59:51.400Z,99156.19
2022-10-23T20:02:20.689Z,99153.48
2022-10-23T20:04:48.989Z,99153.56
2022-10-23T20:07:17.104Z,99152.67
2022-10-23T20:09:45.156Z,99150.77
2022-10-23T20:12:13.331Z,99153.05
2022-10-23T20:14:41.307Z,99149.45
2022-10-23T20:17:09.311Z,99153.21
2022-10-23T20:19:37.687Z,99156.42
2022-10-23T20:22:05.655Z,99151.57
2022-10-23T20:24:33.846Z,99147.26
2022-10-23T20:27:02.140Z,99137.70
2022-10-23T20:29:30.244Z,99130.19
2022-10-23T20:31:58.462Z,99131.63
2022-10-23T20:34:26.896Z,99135.08
2022-10-23T20:36:54.900Z,99129.19
2022-10-23T20:39:29.825Z,99123.32
2022-10-23T20:41:58.208Z,99121.95
2022-10-23T20:44:26.351Z,99122.16
2022-10-23T20:46:54.908Z,99116.80
2022-10-23T20:49:24.172Z,99119.38
2022-10-23T20:51:57.466Z,99116.69
2022-10-23T20:54:28.769Z,99115.57
2022-10-23T20:56:57.132Z,99113.78
2022-10-23T20:59:25.611Z,99107.95
2022-10-23T21:01:55.443Z,99106.52
2022-10-23T21:04:27.644Z,99107.46
2022-10-23T21:07:09.464Z,99101.20
2022-10-23T21:09:39.779Z,99104.49
2022-10-23T21:12:09.050Z,99100.84
2022-10-23T21:14:37.068Z,99102.78
2022-10-23T21:17:05.352Z,99103.52
2022-10-23T21:19:33.487Z,99104.77
2022-10-23T21:22:01.653Z,99101.45
2022-10-23T21:24:29.771Z,99099.50
2022-10-23T21:26:57.752Z,99106.41
2022-10-23T21:29:26.027Z,99109.98
2022-10-23T21:31:59.832Z,99113.83
2022-10-23T21:34:29.179Z,99114.58
2022-10-23T21:37:14.261Z,99109.92
2022-10-23T21:39:44.278Z,99102.68
2022-10-23T21:42:13.352Z,99102.44
2022-10-23T21:44:41.592Z,99099.33
2022-10-23T21:47:10.032Z,99099.42
2022-10-23T21:49:38.104Z,99090.08
2022-10-23T21:52:06.443Z,99082.98
2022-10-23T21:54:34.512Z,99082.50
2022-10-23T21:57:03.488Z,99084.03
2022-10-23T21:59:34.816Z,99079.64
2022-10-23T22:02:04.459Z,99076.23
2022-10-23T22:04:32.619Z,99080.90
2022-10-23T22:07:02.751Z,99076.58
2022-10-23T22:09:32.559Z,99069.70
2022-10-23T22:12:01.390Z,99072.80
2022-10-23T22:14:29.543Z,99075.46
2022-10-23T22:16:57.674Z,99079.76
2022-10-23T22:19:25.674Z,99076.48
2022-10-23T22:21:54.327Z,99074.91
2022-10-23T22:24:22.798Z,99065.30
2022-10-23T22:26:54.570Z,99058.79
2022-10-23T22:29:25.895Z,99053.80
2022-10-23T22:31:54.244Z,99057.26
2022-10-23T22:34:28.665Z,99062.48
2022-10-23T22:37:13.296Z,99057.95
2022-10-23T22:39:41.492Z,99043.11
2022-10-23T22:42:09.498Z,99037.17
2022-10-23T22:44:37.793Z,99033.92
2022-10-23T22:47:06.336Z,99031.31
2022-10-23T22:49:34.563Z,99037.04
2022-10-23T22:52:02.836Z,99034.43
2022-10-23T22:54:31.513Z,99035.88
2022-10-23T22:56:59.712Z,99048.46
2022-10-23T22:59:27.826Z,99057.55
2022-10-23T23:01:55.860Z,99059.94
2022-10-23T23:04:39.559Z,99060.55
2022-10-23T23:07:10.520Z,99049.00
2022-10-23T23:09:40.917Z,99040.14
2022-10-23T23:12:11.449Z,99035.06
2022-10-23T23:14:40.767Z,99036.60
2022-10-23T23:17:09.521Z,99032.46
2022-10-23T23:19:38.810Z,99028.67
2022-10-23T23:22:06.934Z,99029.45
2022-10-23T23:24:35.006Z,99023.53
2022-10-23T23:27:03.453Z,99022.70
2022-10-23T23:29:31.878Z,99030.41
2022-10-23T23:31:59.854Z,99029.52
2022-10-23T23:34:28.982Z,99031.61
2022-10-23T23:36:57.117Z,99032.62
2022-10-23T23:39:26.155Z,99045.39
2022-10-23T23:41:54.608Z,99050.95
2022-10-23T23:44:22.939Z,99046.13
2022-10-23T23:46:50.923Z,99045.16
2022-10-23T23:49:19.183Z,99039.95
2022-10-23T23:51:47.127Z,99033.42
2022-10-23T23:54:15.444Z,99027.69
2022-10-23T23:56:43.880Z,99025.70
2022-10-23T23:59:11.916Z,99023.35
